Check out our new PWSWeather beta!
PWSweather.com
Personal Weather Stations
Station Observations
719732
Ponferrada, PonferradaES 24411

PonferradaPonferradaES 24411

Lat: 42.5728, Lon: -6.6425

Elevation: 1676

Station Type: PCE-FWS 20 con garita Ambient Weather SRS100LX

www.meteo.spyfly.es

High Low Average
Temperature 46.0°F7.8°C 43.3°F6.3°C 44.7°F7.1°C
Dew Point 43.0°F6.1°C 37.2°F2.9°C 40.3°F4.6°C
Winds 13.6 mph 21.9 kmh Calm Calm 5.0 mph W8.0 kmh W
Wind Gusts 22.8 mph36.7 kmh 1.6 mph2.6 kmh 11.0 mph17.7 kmh
Humidity 96% 73% 85%
Pressure 30.06 in1017.9 mb 29.98 in1015.2 mb -
Precipitation 0.11 in2.8 mm - -
Hour Temp Dew Point Humidity Winds Wind Gusts Pressure Precip Precip Rate Daily Precip Total
12:00 AM 45.0°F7.2°C 38.5°F3.6°C 78% 8.3 mph NW13.4 kmh NW 13.0 mph20.9 kmh 30.03 in1016.9 mb 0.00 in0.0 mm 0.00 in0.0 mm 0.11 in2.8 mm
12:05 AM 45.0°F7.2°C 38.5°F3.6°C 78% 8.3 mph WSW13.4 kmh WSW 13.0 mph20.9 kmh 30.04 in1017.3 mb 0.00 in0.0 mm 0.00 in0.0 mm 0.11 in2.8 mm
12:10 AM 45.5°F7.5°C 37.7°F3.2°C 74% 8.3 mph SW13.4 kmh SW 13.6 mph21.9 kmh 30.03 in1016.9 mb 0.00 in0.0 mm 0.00 in0.0 mm 0.11 in2.8 mm
12:15 AM 45.7°F7.6°C 37.5°F3.1°C 73% 9.2 mph W14.8 kmh W 15.2 mph24.5 kmh 30.04 in1017.3 mb 0.00 in0.0 mm 0.00 in0.0 mm 0.11 in2.8 mm
12:20 AM 45.7°F7.6°C 37.5°F3.1°C 73% 8.3 mph WNW13.4 kmh WNW 16.8 mph27.0 kmh 30.04 in1017.3 mb 0.00 in0.0 mm 0.00 in0.0 mm 0.11 in2.8 mm
12:25 AM 45.9°F7.7°C 38.1°F3.4°C 74% 9.8 mph WNW15.8 kmh WNW 18.3 mph29.5 kmh 30.04 in1017.3 mb 0.00 in0.0 mm 0.00 in0.0 mm 0.11 in2.8 mm
12:30 AM 46.0°F7.8°C 37.9°F3.3°C 73% 5.4 mph W8.7 kmh W 18.3 mph29.5 kmh 30.04 in1017.3 mb 0.00 in0.0 mm 0.00 in0.0 mm 0.11 in2.8 mm
12:35 AM 46.0°F7.8°C 37.9°F3.3°C 73% 8.3 mph WNW13.4 kmh WNW 13.6 mph21.9 kmh 30.04 in1017.3 mb 0.00 in0.0 mm 0.00 in0.0 mm 0.11 in2.8 mm
12:40 AM 46.0°F7.8°C 37.9°F3.3°C 73% 6.0 mph WNW9.7 kmh WNW 13.6 mph21.9 kmh 30.04 in1017.3 mb 0.00 in0.0 mm 0.00 in0.0 mm 0.11 in2.8 mm
12:45 AM 46.0°F7.8°C 37.9°F3.3°C 73% 2.2 mph WNW3.5 kmh WNW 12.1 mph19.5 kmh 30.04 in1017.3 mb 0.00 in0.0 mm 0.00 in0.0 mm 0.11 in2.8 mm
12:50 AM 46.0°F7.8°C 37.9°F3.3°C 73% 3.1 mph NW5.0 kmh NW 11.4 mph18.3 kmh 30.05 in1017.6 mb 0.00 in0.0 mm 0.00 in0.0 mm 0.11 in2.8 mm
12:55 AM 46.0°F7.8°C 37.9°F3.3°C 73% 2.2 mph NW3.5 kmh NW 10.7 mph17.2 kmh 30.05 in1017.6 mb 0.00 in0.0 mm 0.00 in0.0 mm 0.11 in2.8 mm
01:00 AM 45.9°F7.7°C 37.7°F3.2°C 73% 2.2 mph NW3.5 kmh NW 8.3 mph13.4 kmh 30.05 in1017.6 mb 0.00 in0.0 mm 0.00 in0.0 mm 0.00 in0.0 mm
01:05 AM 45.9°F7.7°C 38.1°F3.4°C 74% 2.2 mph NW3.5 kmh NW 5.4 mph8.7 kmh 30.05 in1017.6 mb 0.00 in0.0 mm 0.00 in0.0 mm 0.00 in0.0 mm
01:10 AM 45.7°F7.6°C 37.9°F3.3°C 74% 1.6 mph NW2.6 kmh NW 5.4 mph8.7 kmh 30.05 in1017.6 mb 0.00 in0.0 mm 0.00 in0.0 mm 0.00 in0.0 mm
01:15 AM 45.5°F7.5°C 38.0°F3.3°C 75% 6.0 mph WNW9.7 kmh WNW 10.7 mph17.2 kmh 30.05 in1017.6 mb 0.00 in0.0 mm 0.00 in0.0 mm 0.00 in0.0 mm
01:20 AM 45.5°F7.5°C 38.4°F3.6°C 76% 5.4 mph WNW8.7 kmh WNW 10.7 mph17.2 kmh 30.06 in1017.9 mb 0.00 in0.0 mm 0.00 in0.0 mm 0.00 in0.0 mm
01:25 AM 45.1°F7.3°C 38.4°F3.6°C 77% 6.0 mph WNW9.7 kmh WNW 13.6 mph21.9 kmh 30.05 in1017.6 mb 0.00 in0.0 mm 0.00 in0.0 mm 0.00 in0.0 mm
01:30 AM 44.8°F7.1°C 38.7°F3.7°C 79% 4.5 mph W7.2 kmh W 13.6 mph21.9 kmh 30.06 in1017.9 mb 0.00 in0.0 mm 0.00 in0.0 mm 0.00 in0.0 mm
01:35 AM 44.4°F6.9°C 39.0°F3.9°C 81% 5.4 mph W8.7 kmh W 10.7 mph17.2 kmh 30.06 in1017.9 mb 0.00 in0.0 mm 0.00 in0.0 mm 0.00 in0.0 mm
01:40 AM 44.2°F6.8°C 39.1°F3.9°C 82% 5.4 mph WNW8.7 kmh WNW 13.0 mph20.9 kmh 30.06 in1017.9 mb 0.00 in0.0 mm 0.00 in0.0 mm 0.00 in0.0 mm
01:45 AM 44.1°F6.7°C 38.9°F3.8°C 82% 9.2 mph WNW14.8 kmh WNW 13.6 mph21.9 kmh 30.05 in1017.6 mb 0.00 in0.0 mm 0.00 in0.0 mm 0.00 in0.0 mm
01:50 AM 43.9°F6.6°C 38.7°F3.7°C 82% 6.0 mph NW9.7 kmh NW 13.6 mph21.9 kmh 30.06 in1017.9 mb 0.00 in0.0 mm 0.00 in0.0 mm 0.00 in0.0 mm
01:55 AM 43.9°F6.6°C 39.1°F3.9°C 83% 3.1 mph WNW5.0 kmh WNW 13.6 mph21.9 kmh 30.05 in1017.6 mb 0.00 in0.0 mm 0.00 in0.0 mm 0.00 in0.0 mm
02:00 AM 43.7°F6.5°C 38.9°F3.8°C 83% 2.2 mph W3.5 kmh W 9.8 mph15.8 kmh 30.05 in1017.6 mb 0.00 in0.0 mm 0.00 in0.0 mm 0.00 in0.0 mm
02:05 AM 43.5°F6.4°C 38.7°F3.7°C 83% 5.4 mph WSW8.7 kmh WSW 9.8 mph15.8 kmh 30.04 in1017.3 mb 0.00 in0.0 mm 0.00 in0.0 mm 0.00 in0.0 mm
02:10 AM 43.5°F6.4°C 39.0°F3.9°C 84% 6.0 mph W9.7 kmh W 12.1 mph19.5 kmh 30.05 in1017.6 mb 0.00 in0.0 mm 0.00 in0.0 mm 0.00 in0.0 mm
02:15 AM 43.7°F6.5°C 39.2°F4.0°C 84% 4.5 mph WNW7.2 kmh WNW 12.1 mph19.5 kmh 30.05 in1017.6 mb 0.00 in0.0 mm 0.00 in0.0 mm 0.00 in0.0 mm
02:20 AM 43.9°F6.6°C 39.4°F4.1°C 84% 3.8 mph W6.1 kmh W 9.8 mph15.8 kmh 30.04 in1017.3 mb 0.00 in0.0 mm 0.00 in0.0 mm 0.00 in0.0 mm
02:25 AM 43.9°F6.6°C 39.4°F4.1°C 84% 6.0 mph W9.7 kmh W 12.1 mph19.5 kmh 30.05 in1017.6 mb 0.00 in0.0 mm 0.00 in0.0 mm 0.00 in0.0 mm
02:30 AM 43.9°F6.6°C 39.4°F4.1°C 84% 6.9 mph WNW11.1 kmh WNW 12.1 mph19.5 kmh 30.04 in1017.3 mb 0.00 in0.0 mm 0.00 in0.0 mm 0.00 in0.0 mm
02:35 AM 43.9°F6.6°C 39.4°F4.1°C 84% 4.5 mph WNW7.2 kmh WNW 12.1 mph19.5 kmh 30.04 in1017.3 mb 0.00 in0.0 mm 0.00 in0.0 mm 0.00 in0.0 mm
02:40 AM 44.1°F6.7°C 39.5°F4.2°C 84% 3.8 mph WNW6.1 kmh WNW 12.1 mph19.5 kmh 30.04 in1017.3 mb 0.00 in0.0 mm 0.00 in0.0 mm 0.00 in0.0 mm
02:45 AM 44.1°F6.7°C 39.5°F4.2°C 84% 5.4 mph W8.7 kmh W 9.2 mph14.8 kmh 30.05 in1017.6 mb 0.00 in0.0 mm 0.00 in0.0 mm 0.00 in0.0 mm
02:50 AM 44.2°F6.8°C 39.4°F4.1°C 83% 4.5 mph W7.2 kmh W 9.2 mph14.8 kmh 30.04 in1017.3 mb 0.00 in0.0 mm 0.00 in0.0 mm 0.00 in0.0 mm
02:55 AM 44.2°F6.8°C 39.4°F4.1°C 83% 1.6 mph WNW2.6 kmh WNW 8.3 mph13.4 kmh 30.04 in1017.3 mb 0.01 in0.3 mm 0.12 in3.0 mm 0.01 in0.3 mm
03:00 AM 44.2°F6.8°C 39.4°F4.1°C 83% 2.2 mph NW3.5 kmh NW 8.3 mph13.4 kmh 30.04 in1017.3 mb 0.01 in0.3 mm 0.00 in0.0 mm 0.01 in0.3 mm
03:05 AM 44.1°F6.7°C 39.5°F4.2°C 84% 3.8 mph W6.1 kmh W 5.4 mph8.7 kmh 30.04 in1017.3 mb 0.01 in0.3 mm 0.00 in0.0 mm 0.01 in0.3 mm
03:10 AM 44.1°F6.7°C 39.5°F4.2°C 84% 2.2 mph W3.5 kmh W 6.9 mph11.1 kmh 30.04 in1017.3 mb 0.01 in0.3 mm 0.00 in0.0 mm 0.01 in0.3 mm
03:15 AM 43.9°F6.6°C 39.4°F4.1°C 84% 2.2 mph W3.5 kmh W 6.9 mph11.1 kmh 30.04 in1017.3 mb 0.01 in0.3 mm 0.00 in0.0 mm 0.01 in0.3 mm
03:20 AM 43.9°F6.6°C 39.4°F4.1°C 84% 4.5 mph W7.2 kmh W 7.6 mph12.2 kmh 30.04 in1017.3 mb 0.01 in0.3 mm 0.00 in0.0 mm 0.01 in0.3 mm
03:25 AM 43.9°F6.6°C 39.4°F4.1°C 84% 6.0 mph W9.7 kmh W 9.2 mph14.8 kmh 30.04 in1017.3 mb 0.01 in0.3 mm 0.00 in0.0 mm 0.01 in0.3 mm
03:30 AM 44.1°F6.7°C 39.2°F4.0°C 83% 5.4 mph WNW8.7 kmh WNW 9.8 mph15.8 kmh 30.04 in1017.3 mb 0.01 in0.3 mm 0.00 in0.0 mm 0.01 in0.3 mm
03:35 AM 44.2°F6.8°C 39.4°F4.1°C 83% 6.0 mph WNW9.7 kmh WNW 9.8 mph15.8 kmh 30.04 in1017.3 mb 0.01 in0.3 mm 0.00 in0.0 mm 0.01 in0.3 mm
03:40 AM 44.2°F6.8°C 39.1°F3.9°C 82% 6.9 mph W11.1 kmh W 10.7 mph17.2 kmh 30.04 in1017.3 mb 0.01 in0.3 mm 0.00 in0.0 mm 0.01 in0.3 mm
03:50 AM 44.2°F6.8°C 39.1°F3.9°C 82% 5.4 mph W8.7 kmh W 14.5 mph23.3 kmh 30.04 in1017.3 mb 0.01 in0.3 mm 0.00 in0.0 mm 0.01 in0.3 mm
03:55 AM 44.2°F6.8°C 39.1°F3.9°C 82% 5.4 mph W8.7 kmh W 12.1 mph19.5 kmh 30.04 in1017.3 mb 0.00 in0.0 mm 0.00 in0.0 mm 0.01 in0.3 mm
04:00 AM 44.1°F6.7°C 38.9°F3.8°C 82% 3.8 mph W6.1 kmh W 10.7 mph17.2 kmh 30.04 in1017.3 mb 0.00 in0.0 mm 0.00 in0.0 mm 0.01 in0.3 mm
04:05 AM 44.1°F6.7°C 38.9°F3.8°C 82% 3.8 mph WSW6.1 kmh WSW 8.3 mph13.4 kmh 30.03 in1016.9 mb 0.00 in0.0 mm 0.00 in0.0 mm 0.01 in0.3 mm
04:10 AM 43.9°F6.6°C 38.7°F3.7°C 82% 3.1 mph W5.0 kmh W 7.6 mph12.2 kmh 30.03 in1016.9 mb 0.00 in0.0 mm 0.00 in0.0 mm 0.01 in0.3 mm
04:15 AM 43.7°F6.5°C 38.6°F3.7°C 82% 6.0 mph W9.7 kmh W 10.7 mph17.2 kmh 30.03 in1016.9 mb 0.00 in0.0 mm 0.00 in0.0 mm 0.01 in0.3 mm
04:20 AM 43.7°F6.5°C 38.9°F3.8°C 83% 5.4 mph WNW8.7 kmh WNW 10.7 mph17.2 kmh 30.03 in1016.9 mb 0.00 in0.0 mm 0.00 in0.0 mm 0.01 in0.3 mm
04:25 AM 43.7°F6.5°C 38.9°F3.8°C 83% 6.0 mph WNW9.7 kmh WNW 11.4 mph18.3 kmh 30.02 in1016.6 mb 0.00 in0.0 mm 0.00 in0.0 mm 0.01 in0.3 mm
04:30 AM 43.9°F6.6°C 38.7°F3.7°C 82% 6.0 mph WNW9.7 kmh WNW 11.4 mph18.3 kmh 30.02 in1016.6 mb 0.00 in0.0 mm 0.00 in0.0 mm 0.01 in0.3 mm
04:35 AM 44.1°F6.7°C 38.9°F3.8°C 82% 2.2 mph WNW3.5 kmh WNW 10.7 mph17.2 kmh 30.02 in1016.6 mb 0.00 in0.0 mm 0.00 in0.0 mm 0.01 in0.3 mm
04:40 AM 44.1°F6.7°C 38.9°F3.8°C 82% 6.0 mph W9.7 kmh W 12.1 mph19.5 kmh 30.02 in1016.6 mb 0.00 in0.0 mm 0.00 in0.0 mm 0.01 in0.3 mm
04:45 AM 44.1°F6.7°C 38.9°F3.8°C 82% 6.9 mph W11.1 kmh W 12.1 mph19.5 kmh 30.02 in1016.6 mb 0.00 in0.0 mm 0.00 in0.0 mm 0.01 in0.3 mm
04:50 AM 44.1°F6.7°C 38.9°F3.8°C 82% 6.9 mph WNW11.1 kmh WNW 12.1 mph19.5 kmh 30.02 in1016.6 mb 0.00 in0.0 mm 0.00 in0.0 mm 0.01 in0.3 mm
04:55 AM 44.1°F6.7°C 39.2°F4.0°C 83% 5.4 mph WNW8.7 kmh WNW 11.4 mph18.3 kmh 30.02 in1016.6 mb 0.00 in0.0 mm 0.00 in0.0 mm 0.01 in0.3 mm
05:00 AM 44.1°F6.7°C 39.2°F4.0°C 83% 7.6 mph W12.2 kmh W 13.0 mph20.9 kmh 30.02 in1016.6 mb 0.00 in0.0 mm 0.00 in0.0 mm 0.01 in0.3 mm
05:05 AM 44.1°F6.7°C 39.2°F4.0°C 83% 5.4 mph WSW8.7 kmh WSW 13.0 mph20.9 kmh 30.02 in1016.6 mb 0.00 in0.0 mm 0.00 in0.0 mm 0.01 in0.3 mm
05:10 AM 44.1°F6.7°C 39.2°F4.0°C 83% 5.4 mph W8.7 kmh W 13.0 mph20.9 kmh 30.02 in1016.6 mb 0.00 in0.0 mm 0.00 in0.0 mm 0.01 in0.3 mm
05:15 AM 44.1°F6.7°C 39.5°F4.2°C 84% 4.5 mph WSW7.2 kmh WSW 8.3 mph13.4 kmh 30.01 in1016.3 mb 0.00 in0.0 mm 0.00 in0.0 mm 0.01 in0.3 mm
05:20 AM 43.9°F6.6°C 39.4°F4.1°C 84% 3.1 mph W5.0 kmh W 9.2 mph14.8 kmh 30.01 in1016.3 mb 0.00 in0.0 mm 0.00 in0.0 mm 0.01 in0.3 mm
05:25 AM 43.7°F6.5°C 39.5°F4.2°C 85% 3.1 mph W5.0 kmh W 9.2 mph14.8 kmh 30.01 in1016.3 mb 0.00 in0.0 mm 0.00 in0.0 mm 0.01 in0.3 mm
05:30 AM 43.7°F6.5°C 39.5°F4.2°C 85% 4.5 mph WSW7.2 kmh WSW 10.7 mph17.2 kmh 30.01 in1016.3 mb 0.00 in0.0 mm 0.00 in0.0 mm 0.01 in0.3 mm
05:35 AM 43.7°F6.5°C 39.8°F4.3°C 86% 4.5 mph WSW7.2 kmh WSW 10.7 mph17.2 kmh 30.02 in1016.6 mb 0.00 in0.0 mm 0.00 in0.0 mm 0.01 in0.3 mm
05:40 AM 43.7°F6.5°C 39.8°F4.3°C 86% 3.8 mph W6.1 kmh W 10.7 mph17.2 kmh 30.02 in1016.6 mb 0.00 in0.0 mm 0.00 in0.0 mm 0.01 in0.3 mm
05:45 AM 43.5°F6.4°C 39.6°F4.2°C 86% 4.5 mph WNW7.2 kmh WNW 9.2 mph14.8 kmh 30.01 in1016.3 mb 0.00 in0.0 mm 0.00 in0.0 mm 0.01 in0.3 mm
05:50 AM 43.5°F6.4°C 39.9°F4.4°C 87% 2.2 mph W3.5 kmh W 7.6 mph12.2 kmh 30.01 in1016.3 mb 0.00 in0.0 mm 0.00 in0.0 mm 0.01 in0.3 mm
05:55 AM 43.5°F6.4°C 39.9°F4.4°C 87% 3.1 mph WSW5.0 kmh WSW 6.9 mph11.1 kmh 30.02 in1016.6 mb 0.00 in0.0 mm 0.00 in0.0 mm 0.01 in0.3 mm
06:00 AM 43.5°F6.4°C 40.2°F4.6°C 88% 3.8 mph WSW6.1 kmh WSW 6.9 mph11.1 kmh 30.01 in1016.3 mb 0.00 in0.0 mm 0.00 in0.0 mm 0.01 in0.3 mm
06:05 AM 43.5°F6.4°C 40.2°F4.6°C 88% 3.8 mph SW6.1 kmh SW 6.0 mph9.7 kmh 30.01 in1016.3 mb 0.00 in0.0 mm 0.00 in0.0 mm 0.01 in0.3 mm
06:10 AM 43.3°F6.3°C 40.3°F4.6°C 89% 5.4 mph WSW8.7 kmh WSW 9.8 mph15.8 kmh 30.01 in1016.3 mb 0.00 in0.0 mm 0.00 in0.0 mm 0.01 in0.3 mm
06:15 AM 43.3°F6.3°C 40.3°F4.6°C 89% 6.9 mph WSW11.1 kmh WSW 10.7 mph17.2 kmh 30.01 in1016.3 mb 0.00 in0.0 mm 0.00 in0.0 mm 0.01 in0.3 mm
06:20 AM 43.3°F6.3°C 40.3°F4.6°C 89% 4.5 mph WSW7.2 kmh WSW 10.7 mph17.2 kmh 30.01 in1016.3 mb 0.00 in0.0 mm 0.00 in0.0 mm 0.01 in0.3 mm
06:25 AM 43.3°F6.3°C 40.6°F4.8°C 90% 7.6 mph W12.2 kmh W 13.0 mph20.9 kmh 30.01 in1016.3 mb 0.00 in0.0 mm 0.00 in0.0 mm 0.01 in0.3 mm
06:30 AM 43.3°F6.3°C 40.6°F4.8°C 90% 6.0 mph W9.7 kmh W 13.0 mph20.9 kmh 30.00 in1015.9 mb 0.00 in0.0 mm 0.00 in0.0 mm 0.01 in0.3 mm
06:35 AM 43.3°F6.3°C 40.6°F4.8°C 90% 4.5 mph W7.2 kmh W 10.7 mph17.2 kmh 30.01 in1016.3 mb 0.00 in0.0 mm 0.00 in0.0 mm 0.01 in0.3 mm
06:40 AM 43.3°F6.3°C 40.6°F4.8°C 90% 6.0 mph WSW9.7 kmh WSW 12.1 mph19.5 kmh 30.00 in1015.9 mb 0.00 in0.0 mm 0.00 in0.0 mm 0.01 in0.3 mm
06:45 AM 43.3°F6.3°C 40.6°F4.8°C 90% 7.6 mph WSW12.2 kmh WSW 13.6 mph21.9 kmh 30.00 in1015.9 mb 0.00 in0.0 mm 0.00 in0.0 mm 0.01 in0.3 mm
06:50 AM 43.5°F6.4°C 40.8°F4.9°C 90% 7.6 mph W12.2 kmh W 13.6 mph21.9 kmh 30.00 in1015.9 mb 0.00 in0.0 mm 0.00 in0.0 mm 0.01 in0.3 mm
06:55 AM 43.5°F6.4°C 40.5°F4.7°C 89% 6.9 mph WSW11.1 kmh WSW 13.6 mph21.9 kmh 30.01 in1016.3 mb 0.00 in0.0 mm 0.00 in0.0 mm 0.01 in0.3 mm
07:00 AM 43.7°F6.5°C 40.7°F4.8°C 89% 6.0 mph WSW9.7 kmh WSW 12.1 mph19.5 kmh 30.00 in1015.9 mb 0.00 in0.0 mm 0.00 in0.0 mm 0.01 in0.3 mm
07:05 AM 43.7°F6.5°C 40.4°F4.7°C 88% 4.5 mph W7.2 kmh W 12.1 mph19.5 kmh 30.00 in1015.9 mb 0.00 in0.0 mm 0.00 in0.0 mm 0.01 in0.3 mm
07:10 AM 43.7°F6.5°C 40.4°F4.7°C 88% 6.0 mph WSW9.7 kmh WSW 10.7 mph17.2 kmh 30.00 in1015.9 mb 0.00 in0.0 mm 0.00 in0.0 mm 0.01 in0.3 mm
07:15 AM 43.7°F6.5°C 40.4°F4.7°C 88% 6.9 mph WSW11.1 kmh WSW 9.2 mph14.8 kmh 30.00 in1015.9 mb 0.00 in0.0 mm 0.00 in0.0 mm 0.01 in0.3 mm
07:20 AM 43.7°F6.5°C 40.4°F4.7°C 88% 6.0 mph WNW9.7 kmh WNW 11.4 mph18.3 kmh 30.01 in1016.3 mb 0.00 in0.0 mm 0.00 in0.0 mm 0.01 in0.3 mm
07:25 AM 43.7°F6.5°C 40.4°F4.7°C 88% 4.5 mph WNW7.2 kmh WNW 11.4 mph18.3 kmh 30.01 in1016.3 mb 0.00 in0.0 mm 0.00 in0.0 mm 0.01 in0.3 mm
07:30 AM 43.7°F6.5°C 40.7°F4.8°C 89% 4.5 mph WSW7.2 kmh WSW 8.3 mph13.4 kmh 30.01 in1016.3 mb 0.00 in0.0 mm 0.00 in0.0 mm 0.01 in0.3 mm
07:35 AM 43.7°F6.5°C 40.7°F4.8°C 89% 3.8 mph WSW6.1 kmh WSW 8.3 mph13.4 kmh 30.00 in1015.9 mb 0.00 in0.0 mm 0.00 in0.0 mm 0.01 in0.3 mm
07:40 AM 43.7°F6.5°C 40.7°F4.8°C 89% 5.4 mph SW8.7 kmh SW 9.8 mph15.8 kmh 30.01 in1016.3 mb 0.00 in0.0 mm 0.00 in0.0 mm 0.01 in0.3 mm
07:45 AM 43.7°F6.5°C 40.7°F4.8°C 89% 6.0 mph SW9.7 kmh SW 9.8 mph15.8 kmh 30.00 in1015.9 mb 0.00 in0.0 mm 0.00 in0.0 mm 0.01 in0.3 mm
07:50 AM 43.9°F6.6°C 40.9°F4.9°C 89% 3.1 mph WSW5.0 kmh WSW 9.8 mph15.8 kmh 30.01 in1016.3 mb 0.00 in0.0 mm 0.00 in0.0 mm 0.01 in0.3 mm
07:55 AM 43.9°F6.6°C 40.6°F4.8°C 88% 6.9 mph W11.1 kmh W 9.8 mph15.8 kmh 30.00 in1015.9 mb 0.00 in0.0 mm 0.00 in0.0 mm 0.01 in0.3 mm
08:00 AM 43.9°F6.6°C 40.6°F4.8°C 88% 4.5 mph W7.2 kmh W 9.8 mph15.8 kmh 30.00 in1015.9 mb 0.00 in0.0 mm 0.00 in0.0 mm 0.01 in0.3 mm
08:05 AM 43.9°F6.6°C 40.6°F4.8°C 88% 6.0 mph W9.7 kmh W 10.7 mph17.2 kmh 30.00 in1015.9 mb 0.00 in0.0 mm 0.00 in0.0 mm 0.01 in0.3 mm
08:10 AM 44.1°F6.7°C 40.4°F4.7°C 87% 6.9 mph W11.1 kmh W 11.4 mph18.3 kmh 30.00 in1015.9 mb 0.00 in0.0 mm 0.00 in0.0 mm 0.01 in0.3 mm
08:15 AM 44.1°F6.7°C 40.1°F4.5°C 86% 5.4 mph WNW8.7 kmh WNW 11.4 mph18.3 kmh 30.00 in1015.9 mb 0.00 in0.0 mm 0.00 in0.0 mm 0.01 in0.3 mm
08:20 AM 44.4°F6.9°C 40.2°F4.6°C 85% 8.3 mph NW13.4 kmh NW 14.5 mph23.3 kmh 30.00 in1015.9 mb 0.00 in0.0 mm 0.00 in0.0 mm 0.01 in0.3 mm
08:25 AM 44.6°F7.0°C 39.8°F4.3°C 83% 8.3 mph NW13.4 kmh NW 14.5 mph23.3 kmh 30.01 in1016.3 mb 0.00 in0.0 mm 0.00 in0.0 mm 0.01 in0.3 mm
08:30 AM 44.4°F6.9°C 39.9°F4.4°C 84% 6.9 mph NW11.1 kmh NW 13.6 mph21.9 kmh 30.01 in1016.3 mb 0.00 in0.0 mm 0.00 in0.0 mm 0.01 in0.3 mm
08:35 AM 44.4°F6.9°C 39.9°F4.4°C 84% 6.9 mph WNW11.1 kmh WNW 13.6 mph21.9 kmh 30.01 in1016.3 mb 0.00 in0.0 mm 0.00 in0.0 mm 0.01 in0.3 mm
08:40 AM 44.2°F6.8°C 39.7°F4.3°C 84% 9.2 mph W14.8 kmh W 14.5 mph23.3 kmh 30.01 in1016.3 mb 0.00 in0.0 mm 0.00 in0.0 mm 0.01 in0.3 mm
08:45 AM 44.2°F6.8°C 39.7°F4.3°C 84% 6.9 mph WSW11.1 kmh WSW 14.5 mph23.3 kmh 30.01 in1016.3 mb 0.00 in0.0 mm 0.00 in0.0 mm 0.01 in0.3 mm
08:50 AM 44.2°F6.8°C 40.0°F4.4°C 85% 8.3 mph WSW13.4 kmh WSW 13.6 mph21.9 kmh 30.01 in1016.3 mb 0.00 in0.0 mm 0.00 in0.0 mm 0.01 in0.3 mm
08:55 AM 44.2°F6.8°C 40.0°F4.4°C 85% 9.2 mph WSW14.8 kmh WSW 13.0 mph20.9 kmh 30.02 in1016.6 mb 0.00 in0.0 mm 0.00 in0.0 mm 0.01 in0.3 mm
09:00 AM 44.1°F6.7°C 39.8°F4.3°C 85% 6.0 mph W9.7 kmh W 14.5 mph23.3 kmh 30.02 in1016.6 mb 0.00 in0.0 mm 0.00 in0.0 mm 0.01 in0.3 mm
09:05 AM 44.1°F6.7°C 39.8°F4.3°C 85% 6.9 mph WNW11.1 kmh WNW 14.5 mph23.3 kmh 30.02 in1016.6 mb 0.00 in0.0 mm 0.00 in0.0 mm 0.01 in0.3 mm
09:10 AM 43.9°F6.6°C 39.7°F4.3°C 85% 6.0 mph WNW9.7 kmh WNW 13.6 mph21.9 kmh 30.02 in1016.6 mb 0.00 in0.0 mm 0.00 in0.0 mm 0.01 in0.3 mm
09:15 AM 43.9°F6.6°C 39.7°F4.3°C 85% 6.0 mph WNW9.7 kmh WNW 13.6 mph21.9 kmh 30.02 in1016.6 mb 0.00 in0.0 mm 0.00 in0.0 mm 0.01 in0.3 mm
09:20 AM 43.9°F6.6°C 39.7°F4.3°C 85% 5.4 mph W8.7 kmh W 10.7 mph17.2 kmh 30.02 in1016.6 mb 0.00 in0.0 mm 0.00 in0.0 mm 0.01 in0.3 mm
09:25 AM 43.9°F6.6°C 40.0°F4.4°C 86% 5.4 mph WSW8.7 kmh WSW 9.8 mph15.8 kmh 30.02 in1016.6 mb 0.00 in0.0 mm 0.00 in0.0 mm 0.01 in0.3 mm
09:30 AM 43.9°F6.6°C 40.0°F4.4°C 86% 3.8 mph WSW6.1 kmh WSW 12.1 mph19.5 kmh 30.01 in1016.3 mb 0.00 in0.0 mm 0.00 in0.0 mm 0.01 in0.3 mm
09:35 AM 43.9°F6.6°C 40.0°F4.4°C 86% 5.4 mph WSW8.7 kmh WSW 13.0 mph20.9 kmh 30.01 in1016.3 mb 0.00 in0.0 mm 0.00 in0.0 mm 0.01 in0.3 mm
09:40 AM 43.9°F6.6°C 40.0°F4.4°C 86% 5.4 mph WSW8.7 kmh WSW 13.0 mph20.9 kmh 30.02 in1016.6 mb 0.00 in0.0 mm 0.00 in0.0 mm 0.01 in0.3 mm
09:45 AM 43.9°F6.6°C 39.7°F4.3°C 85% 9.8 mph W15.8 kmh W 14.5 mph23.3 kmh 30.01 in1016.3 mb 0.00 in0.0 mm 0.00 in0.0 mm 0.01 in0.3 mm
09:50 AM 44.1°F6.7°C 39.8°F4.3°C 85% 5.4 mph W8.7 kmh W 14.5 mph23.3 kmh 30.01 in1016.3 mb 0.00 in0.0 mm 0.00 in0.0 mm 0.01 in0.3 mm
09:55 AM 44.1°F6.7°C 39.8°F4.3°C 85% 6.9 mph W11.1 kmh W 13.0 mph20.9 kmh 30.01 in1016.3 mb 0.00 in0.0 mm 0.00 in0.0 mm 0.01 in0.3 mm
10:00 AM 44.2°F6.8°C 40.0°F4.4°C 85% 6.0 mph WNW9.7 kmh WNW 11.4 mph18.3 kmh 30.01 in1016.3 mb 0.00 in0.0 mm 0.00 in0.0 mm 0.01 in0.3 mm
10:05 AM 44.2°F6.8°C 40.0°F4.4°C 85% 6.0 mph W9.7 kmh W 10.7 mph17.2 kmh 30.01 in1016.3 mb 0.00 in0.0 mm 0.00 in0.0 mm 0.01 in0.3 mm
10:10 AM 44.4°F6.9°C 40.2°F4.6°C 85% 7.6 mph W12.2 kmh W 12.1 mph19.5 kmh 30.02 in1016.6 mb 0.00 in0.0 mm 0.00 in0.0 mm 0.01 in0.3 mm
10:15 AM 44.4°F6.9°C 40.2°F4.6°C 85% 11.4 mph WSW18.3 kmh WSW 16.8 mph27.0 kmh 30.02 in1016.6 mb 0.00 in0.0 mm 0.00 in0.0 mm 0.01 in0.3 mm
10:20 AM 44.4°F6.9°C 40.2°F4.6°C 85% 13.6 mph W21.9 kmh W 18.3 mph29.5 kmh 30.01 in1016.3 mb 0.00 in0.0 mm 0.00 in0.0 mm 0.01 in0.3 mm
10:25 AM 44.6°F7.0°C 40.1°F4.5°C 84% 13.6 mph WNW21.9 kmh WNW 20.6 mph33.2 kmh 30.02 in1016.6 mb 0.00 in0.0 mm 0.00 in0.0 mm 0.01 in0.3 mm
10:30 AM 44.8°F7.1°C 39.9°F4.4°C 83% 6.9 mph WNW11.1 kmh WNW 20.6 mph33.2 kmh 30.02 in1016.6 mb 0.00 in0.0 mm 0.00 in0.0 mm 0.01 in0.3 mm
10:35 AM 44.8°F7.1°C 39.3°F4.1°C 81% 8.3 mph NW13.4 kmh NW 22.8 mph36.7 kmh 30.02 in1016.6 mb 0.00 in0.0 mm 0.00 in0.0 mm 0.01 in0.3 mm
10:40 AM 44.8°F7.1°C 38.7°F3.7°C 79% 9.8 mph NW15.8 kmh NW 22.8 mph36.7 kmh 30.02 in1016.6 mb 0.00 in0.0 mm 0.00 in0.0 mm 0.01 in0.3 mm
10:45 AM 45.0°F7.2°C 37.9°F3.3°C 76% 13.0 mph WNW20.9 kmh WNW 22.8 mph36.7 kmh 30.02 in1016.6 mb 0.00 in0.0 mm 0.00 in0.0 mm 0.01 in0.3 mm
10:50 AM 45.1°F7.3°C 37.4°F3.0°C 74% 9.2 mph NW14.8 kmh NW 22.8 mph36.7 kmh 30.02 in1016.6 mb 0.00 in0.0 mm 0.00 in0.0 mm 0.01 in0.3 mm
10:55 AM 45.3°F7.4°C 37.2°F2.9°C 73% 13.6 mph WNW21.9 kmh WNW 22.8 mph36.7 kmh 30.02 in1016.6 mb 0.00 in0.0 mm 0.00 in0.0 mm 0.01 in0.3 mm
11:00 AM 45.3°F7.4°C 37.2°F2.9°C 73% 8.3 mph W13.4 kmh W 18.3 mph29.5 kmh 30.02 in1016.6 mb 0.00 in0.0 mm 0.00 in0.0 mm 0.01 in0.3 mm
11:05 AM 45.1°F7.3°C 37.4°F3.0°C 74% 6.0 mph WNW9.7 kmh WNW 16.8 mph27.0 kmh 30.03 in1016.9 mb 0.00 in0.0 mm 0.00 in0.0 mm 0.01 in0.3 mm
11:10 AM 45.0°F7.2°C 37.5°F3.1°C 75% 6.0 mph NW9.7 kmh NW 13.6 mph21.9 kmh 30.03 in1016.9 mb 0.00 in0.0 mm 0.00 in0.0 mm 0.01 in0.3 mm
11:15 AM 45.0°F7.2°C 37.9°F3.3°C 76% 4.5 mph W7.2 kmh W 13.6 mph21.9 kmh 30.03 in1016.9 mb 0.00 in0.0 mm 0.00 in0.0 mm 0.01 in0.3 mm
11:20 AM 45.0°F7.2°C 38.2°F3.4°C 77% 6.0 mph W9.7 kmh W 9.8 mph15.8 kmh 30.02 in1016.6 mb 0.00 in0.0 mm 0.00 in0.0 mm 0.01 in0.3 mm
11:25 AM 45.0°F7.2°C 38.2°F3.4°C 77% 4.5 mph W7.2 kmh W 9.2 mph14.8 kmh 30.03 in1016.9 mb 0.00 in0.0 mm 0.00 in0.0 mm 0.01 in0.3 mm
11:30 AM 45.0°F7.2°C 38.5°F3.6°C 78% 5.4 mph WSW8.7 kmh WSW 9.2 mph14.8 kmh 30.02 in1016.6 mb 0.00 in0.0 mm 0.00 in0.0 mm 0.01 in0.3 mm
11:35 AM 45.1°F7.3°C 38.7°F3.7°C 78% 5.4 mph WSW8.7 kmh WSW 8.3 mph13.4 kmh 30.02 in1016.6 mb 0.00 in0.0 mm 0.00 in0.0 mm 0.01 in0.3 mm
11:40 AM 45.3°F7.4°C 39.2°F4.0°C 79% 3.8 mph W6.1 kmh W 9.2 mph14.8 kmh 30.02 in1016.6 mb 0.00 in0.0 mm 0.00 in0.0 mm 0.01 in0.3 mm
11:45 AM 45.3°F7.4°C 39.5°F4.2°C 80% 4.5 mph W7.2 kmh W 9.2 mph14.8 kmh 30.02 in1016.6 mb 0.00 in0.0 mm 0.00 in0.0 mm 0.01 in0.3 mm
11:50 AM 45.3°F7.4°C 39.8°F4.3°C 81% 6.0 mph W9.7 kmh W 8.3 mph13.4 kmh 30.02 in1016.6 mb 0.00 in0.0 mm 0.00 in0.0 mm 0.01 in0.3 mm
11:55 AM 45.3°F7.4°C 40.2°F4.6°C 82% 6.0 mph W9.7 kmh W 12.1 mph19.5 kmh 30.03 in1016.9 mb 0.00 in0.0 mm 0.00 in0.0 mm 0.01 in0.3 mm
12:00 PM 45.1°F7.3°C 40.0°F4.4°C 82% 2.2 mph WSW3.5 kmh WSW 12.1 mph19.5 kmh 30.02 in1016.6 mb 0.00 in0.0 mm 0.00 in0.0 mm 0.01 in0.3 mm
12:05 PM 45.0°F7.2°C 40.1°F4.5°C 83% 4.5 mph WSW7.2 kmh WSW 9.8 mph15.8 kmh 30.03 in1016.9 mb 0.00 in0.0 mm 0.00 in0.0 mm 0.01 in0.3 mm
12:10 PM 44.8°F7.1°C 39.9°F4.4°C 83% 5.4 mph WSW8.7 kmh WSW 9.2 mph14.8 kmh 30.02 in1016.6 mb 0.00 in0.0 mm 0.00 in0.0 mm 0.01 in0.3 mm
12:15 PM 44.8°F7.1°C 40.2°F4.6°C 84% 4.5 mph WSW7.2 kmh WSW 11.4 mph18.3 kmh 30.02 in1016.6 mb 0.01 in0.3 mm 0.12 in3.0 mm 0.02 in0.5 mm
12:20 PM 44.6°F7.0°C 40.1°F4.5°C 84% 6.9 mph WSW11.1 kmh WSW 11.4 mph18.3 kmh 30.02 in1016.6 mb 0.01 in0.3 mm 0.00 in0.0 mm 0.02 in0.5 mm
12:25 PM 44.6°F7.0°C 40.4°F4.7°C 85% 6.0 mph WSW9.7 kmh WSW 13.0 mph20.9 kmh 30.02 in1016.6 mb 0.01 in0.3 mm 0.00 in0.0 mm 0.02 in0.5 mm
12:30 PM 44.4°F6.9°C 40.5°F4.7°C 86% 6.0 mph WSW9.7 kmh WSW 13.0 mph20.9 kmh 30.02 in1016.6 mb 0.01 in0.3 mm 0.00 in0.0 mm 0.02 in0.5 mm
12:35 PM 44.4°F6.9°C 40.8°F4.9°C 87% 5.4 mph W8.7 kmh W 11.4 mph18.3 kmh 30.02 in1016.6 mb 0.01 in0.3 mm 0.00 in0.0 mm 0.02 in0.5 mm
12:40 PM 44.4°F6.9°C 41.1°F5.1°C 88% 4.5 mph WNW7.2 kmh WNW 11.4 mph18.3 kmh 30.02 in1016.6 mb 0.01 in0.3 mm 0.00 in0.0 mm 0.02 in0.5 mm
12:45 PM 44.4°F6.9°C 41.4°F5.2°C 89% 6.9 mph W11.1 kmh W 10.7 mph17.2 kmh 30.01 in1016.3 mb 0.01 in0.3 mm 0.00 in0.0 mm 0.02 in0.5 mm
12:50 PM 44.6°F7.0°C 41.3°F5.2°C 88% 3.8 mph WSW6.1 kmh WSW 11.4 mph18.3 kmh 30.02 in1016.6 mb 0.01 in0.3 mm 0.00 in0.0 mm 0.02 in0.5 mm
12:55 PM 44.8°F7.1°C 41.4°F5.2°C 88% 6.9 mph WSW11.1 kmh WSW 13.0 mph20.9 kmh 30.01 in1016.3 mb 0.01 in0.3 mm 0.00 in0.0 mm 0.02 in0.5 mm
01:00 PM 45.0°F7.2°C 41.9°F5.5°C 89% 6.9 mph WSW11.1 kmh WSW 14.5 mph23.3 kmh 30.01 in1016.3 mb 0.01 in0.3 mm 0.00 in0.0 mm 0.02 in0.5 mm
01:05 PM 45.1°F7.3°C 41.8°F5.4°C 88% 6.9 mph WSW11.1 kmh WSW 14.5 mph23.3 kmh 30.01 in1016.3 mb 0.01 in0.3 mm 0.00 in0.0 mm 0.02 in0.5 mm
01:10 PM 45.3°F7.4°C 42.0°F5.6°C 88% 5.4 mph WSW8.7 kmh WSW 13.0 mph20.9 kmh 30.00 in1015.9 mb 0.01 in0.3 mm 0.00 in0.0 mm 0.02 in0.5 mm
01:15 PM 45.3°F7.4°C 42.0°F5.6°C 88% 5.4 mph WSW8.7 kmh WSW 13.0 mph20.9 kmh 30.01 in1016.3 mb 0.00 in0.0 mm 0.00 in0.0 mm 0.02 in0.5 mm
01:20 PM 45.5°F7.5°C 42.2°F5.7°C 88% 5.4 mph W8.7 kmh W 10.7 mph17.2 kmh 30.00 in1015.9 mb 0.00 in0.0 mm 0.00 in0.0 mm 0.02 in0.5 mm
01:25 PM 45.5°F7.5°C 42.2°F5.7°C 88% 4.5 mph WSW7.2 kmh WSW 13.0 mph20.9 kmh 30.01 in1016.3 mb 0.00 in0.0 mm 0.00 in0.0 mm 0.02 in0.5 mm
01:30 PM 45.5°F7.5°C 42.2°F5.7°C 88% 7.6 mph WSW12.2 kmh WSW 13.0 mph20.9 kmh 30.01 in1016.3 mb 0.00 in0.0 mm 0.00 in0.0 mm 0.02 in0.5 mm
01:35 PM 45.5°F7.5°C 42.2°F5.7°C 88% 6.9 mph W11.1 kmh W 13.0 mph20.9 kmh 30.00 in1015.9 mb 0.00 in0.0 mm 0.00 in0.0 mm 0.02 in0.5 mm
01:40 PM 45.7°F7.6°C 42.3°F5.7°C 88% 5.4 mph WNW8.7 kmh WNW 14.5 mph23.3 kmh 30.00 in1015.9 mb 0.00 in0.0 mm 0.00 in0.0 mm 0.02 in0.5 mm
01:45 PM 45.7°F7.6°C 42.3°F5.7°C 88% 4.5 mph W7.2 kmh W 14.5 mph23.3 kmh 30.01 in1016.3 mb 0.00 in0.0 mm 0.00 in0.0 mm 0.02 in0.5 mm
01:50 PM 45.7°F7.6°C 42.3°F5.7°C 88% 5.4 mph WSW8.7 kmh WSW 10.7 mph17.2 kmh 30.01 in1016.3 mb 0.00 in0.0 mm 0.00 in0.0 mm 0.02 in0.5 mm
01:55 PM 45.5°F7.5°C 42.2°F5.7°C 88% 5.4 mph WSW8.7 kmh WSW 9.8 mph15.8 kmh 30.01 in1016.3 mb 0.00 in0.0 mm 0.00 in0.0 mm 0.02 in0.5 mm
02:00 PM 45.5°F7.5°C 42.2°F5.7°C 88% 7.6 mph WNW12.2 kmh WNW 13.0 mph20.9 kmh 30.00 in1015.9 mb 0.01 in0.3 mm 0.01 in0.3 mm 0.04 in1.0 mm
02:05 PM 45.5°F7.5°C 42.2°F5.7°C 88% 9.2 mph W14.8 kmh W 13.0 mph20.9 kmh 30.00 in1015.9 mb 0.01 in0.3 mm 0.00 in0.0 mm 0.04 in1.0 mm
02:10 PM 45.3°F7.4°C 41.4°F5.2°C 86% 9.2 mph W14.8 kmh W 15.2 mph24.5 kmh 30.00 in1015.9 mb 0.01 in0.3 mm 0.00 in0.0 mm 0.04 in1.0 mm
02:15 PM 45.3°F7.4°C 41.1°F5.1°C 85% 6.9 mph W11.1 kmh W 15.2 mph24.5 kmh 30.00 in1015.9 mb 0.01 in0.3 mm 0.00 in0.0 mm 0.04 in1.0 mm
02:20 PM 45.3°F7.4°C 41.1°F5.1°C 85% 2.2 mph W3.5 kmh W 15.2 mph24.5 kmh 30.00 in1015.9 mb 0.01 in0.3 mm 0.00 in0.0 mm 0.04 in1.0 mm
02:25 PM 45.3°F7.4°C 41.1°F5.1°C 85% 6.0 mph W9.7 kmh W 14.5 mph23.3 kmh 30.00 in1015.9 mb 0.01 in0.3 mm 0.00 in0.0 mm 0.04 in1.0 mm
02:30 PM 45.3°F7.4°C 41.4°F5.2°C 86% 5.4 mph W8.7 kmh W 9.8 mph15.8 kmh 30.00 in1015.9 mb 0.01 in0.3 mm 0.00 in0.0 mm 0.04 in1.0 mm
02:35 PM 45.5°F7.5°C 41.6°F5.3°C 86% 3.8 mph W6.1 kmh W 11.4 mph18.3 kmh 30.00 in1015.9 mb 0.01 in0.3 mm 0.00 in0.0 mm 0.04 in1.0 mm
02:40 PM 45.5°F7.5°C 41.6°F5.3°C 86% 3.1 mph WSW5.0 kmh WSW 11.4 mph18.3 kmh 30.00 in1015.9 mb 0.01 in0.3 mm 0.00 in0.0 mm 0.04 in1.0 mm
02:45 PM 45.7°F7.6°C 42.0°F5.6°C 87% 3.8 mph SW6.1 kmh SW 12.1 mph19.5 kmh 30.00 in1015.9 mb 0.01 in0.3 mm 0.00 in0.0 mm 0.04 in1.0 mm
02:50 PM 45.9°F7.7°C 42.2°F5.7°C 87% 7.6 mph WSW12.2 kmh WSW 12.1 mph19.5 kmh 30.00 in1015.9 mb 0.01 in0.3 mm 0.00 in0.0 mm 0.04 in1.0 mm
02:55 PM 45.9°F7.7°C 42.2°F5.7°C 87% 5.4 mph WNW8.7 kmh WNW 9.8 mph15.8 kmh 30.01 in1016.3 mb 0.01 in0.3 mm 0.00 in0.0 mm 0.04 in1.0 mm
03:00 PM 45.9°F7.7°C 42.2°F5.7°C 87% 6.0 mph WNW9.7 kmh WNW 11.4 mph18.3 kmh 30.01 in1016.3 mb 0.00 in0.0 mm 0.00 in0.0 mm 0.04 in1.0 mm
03:05 PM 45.9°F7.7°C 41.9°F5.5°C 86% 4.5 mph WNW7.2 kmh WNW 13.6 mph21.9 kmh 30.00 in1015.9 mb 0.00 in0.0 mm 0.00 in0.0 mm 0.04 in1.0 mm
03:10 PM 45.9°F7.7°C 41.9°F5.5°C 86% 5.4 mph W8.7 kmh W 13.6 mph21.9 kmh 30.00 in1015.9 mb 0.00 in0.0 mm 0.00 in0.0 mm 0.04 in1.0 mm
03:15 PM 46.0°F7.8°C 42.1°F5.6°C 86% 3.8 mph WSW6.1 kmh WSW 12.1 mph19.5 kmh 30.00 in1015.9 mb 0.00 in0.0 mm 0.00 in0.0 mm 0.04 in1.0 mm
03:20 PM 46.0°F7.8°C 41.8°F5.4°C 85% 9.2 mph W14.8 kmh W 13.0 mph20.9 kmh 30.00 in1015.9 mb 0.00 in0.0 mm 0.00 in0.0 mm 0.04 in1.0 mm
03:25 PM 45.9°F7.7°C 41.3°F5.2°C 84% 6.0 mph W9.7 kmh W 13.0 mph20.9 kmh 30.00 in1015.9 mb 0.00 in0.0 mm 0.00 in0.0 mm 0.04 in1.0 mm
03:30 PM 45.9°F7.7°C 41.3°F5.2°C 84% 3.8 mph WSW6.1 kmh WSW 13.0 mph20.9 kmh 30.00 in1015.9 mb 0.00 in0.0 mm 0.00 in0.0 mm 0.04 in1.0 mm
03:35 PM 45.9°F7.7°C 41.0°F5.0°C 83% 5.4 mph WSW8.7 kmh WSW 14.5 mph23.3 kmh 30.00 in1015.9 mb 0.00 in0.0 mm 0.00 in0.0 mm 0.04 in1.0 mm
03:40 PM 45.9°F7.7°C 41.0°F5.0°C 83% 9.8 mph WNW15.8 kmh WNW 14.5 mph23.3 kmh 30.00 in1015.9 mb 0.00 in0.0 mm 0.00 in0.0 mm 0.04 in1.0 mm
03:45 PM 45.9°F7.7°C 41.0°F5.0°C 83% 4.5 mph W7.2 kmh W 13.0 mph20.9 kmh 30.00 in1015.9 mb 0.00 in0.0 mm 0.00 in0.0 mm 0.04 in1.0 mm
03:50 PM 45.9°F7.7°C 41.0°F5.0°C 83% 4.5 mph W7.2 kmh W 13.0 mph20.9 kmh 30.00 in1015.9 mb 0.00 in0.0 mm 0.00 in0.0 mm 0.04 in1.0 mm
03:55 PM 45.9°F7.7°C 41.0°F5.0°C 83% 6.0 mph W9.7 kmh W 12.1 mph19.5 kmh 30.00 in1015.9 mb 0.00 in0.0 mm 0.00 in0.0 mm 0.04 in1.0 mm
04:00 PM 46.0°F7.8°C 41.2°F5.1°C 83% 9.8 mph WNW15.8 kmh WNW 13.6 mph21.9 kmh 30.00 in1015.9 mb 0.00 in0.0 mm 0.00 in0.0 mm 0.04 in1.0 mm
04:05 PM 46.0°F7.8°C 41.2°F5.1°C 83% 9.8 mph NW15.8 kmh NW 13.6 mph21.9 kmh 30.00 in1015.9 mb 0.00 in0.0 mm 0.00 in0.0 mm 0.04 in1.0 mm
04:10 PM 46.0°F7.8°C 41.2°F5.1°C 83% 6.9 mph NW11.1 kmh NW 13.6 mph21.9 kmh 30.00 in1015.9 mb 0.00 in0.0 mm 0.00 in0.0 mm 0.04 in1.0 mm
04:15 PM 46.0°F7.8°C 41.2°F5.1°C 83% 6.0 mph NW9.7 kmh NW 13.6 mph21.9 kmh 30.00 in1015.9 mb 0.00 in0.0 mm 0.00 in0.0 mm 0.04 in1.0 mm
04:20 PM 46.0°F7.8°C 41.2°F5.1°C 83% 5.4 mph W8.7 kmh W 13.0 mph20.9 kmh 30.01 in1016.3 mb 0.00 in0.0 mm 0.00 in0.0 mm 0.04 in1.0 mm
04:25 PM 45.9°F7.7°C 41.0°F5.0°C 83% 6.9 mph W11.1 kmh W 16.8 mph27.0 kmh 30.00 in1015.9 mb 0.00 in0.0 mm 0.00 in0.0 mm 0.04 in1.0 mm
04:30 PM 45.9°F7.7°C 40.7°F4.8°C 82% 8.3 mph W13.4 kmh W 16.8 mph27.0 kmh 30.00 in1015.9 mb 0.00 in0.0 mm 0.00 in0.0 mm 0.04 in1.0 mm
04:35 PM 45.7°F7.6°C 40.5°F4.7°C 82% 6.0 mph W9.7 kmh W 16.8 mph27.0 kmh 30.00 in1015.9 mb 0.00 in0.0 mm 0.00 in0.0 mm 0.04 in1.0 mm
04:40 PM 45.5°F7.5°C 40.3°F4.6°C 82% 6.0 mph W9.7 kmh W 16.8 mph27.0 kmh 30.00 in1015.9 mb 0.00 in0.0 mm 0.00 in0.0 mm 0.04 in1.0 mm
04:45 PM 45.5°F7.5°C 40.3°F4.6°C 82% 6.0 mph NW9.7 kmh NW 15.9 mph25.6 kmh 30.00 in1015.9 mb 0.00 in0.0 mm 0.00 in0.0 mm 0.04 in1.0 mm
04:50 PM 45.3°F7.4°C 40.2°F4.6°C 82% 9.2 mph WNW14.8 kmh WNW 14.5 mph23.3 kmh 29.99 in1015.6 mb 0.00 in0.0 mm 0.00 in0.0 mm 0.04 in1.0 mm
04:55 PM 45.3°F7.4°C 40.2°F4.6°C 82% 5.4 mph W8.7 kmh W 14.5 mph23.3 kmh 29.99 in1015.6 mb 0.00 in0.0 mm 0.00 in0.0 mm 0.04 in1.0 mm
05:00 PM 45.3°F7.4°C 40.2°F4.6°C 82% 2.2 mph W3.5 kmh W 14.5 mph23.3 kmh 29.99 in1015.6 mb 0.00 in0.0 mm 0.00 in0.0 mm 0.04 in1.0 mm
05:05 PM 45.3°F7.4°C 40.2°F4.6°C 82% 8.3 mph WNW13.4 kmh WNW 15.9 mph25.6 kmh 30.00 in1015.9 mb 0.00 in0.0 mm 0.00 in0.0 mm 0.04 in1.0 mm
05:10 PM 45.5°F7.5°C 40.3°F4.6°C 82% 6.0 mph WNW9.7 kmh WNW 15.9 mph25.6 kmh 29.99 in1015.6 mb 0.00 in0.0 mm 0.00 in0.0 mm 0.04 in1.0 mm
05:15 PM 45.5°F7.5°C 40.3°F4.6°C 82% 11.4 mph WNW18.3 kmh WNW 16.8 mph27.0 kmh 29.99 in1015.6 mb 0.00 in0.0 mm 0.00 in0.0 mm 0.04 in1.0 mm
05:20 PM 45.3°F7.4°C 40.2°F4.6°C 82% 6.0 mph WNW9.7 kmh WNW 16.8 mph27.0 kmh 29.99 in1015.6 mb 0.00 in0.0 mm 0.00 in0.0 mm 0.04 in1.0 mm
05:25 PM 45.5°F7.5°C 40.3°F4.6°C 82% 3.8 mph W6.1 kmh W 13.0 mph20.9 kmh 29.99 in1015.6 mb 0.00 in0.0 mm 0.00 in0.0 mm 0.04 in1.0 mm
05:30 PM 45.3°F7.4°C 40.2°F4.6°C 82% 3.1 mph W5.0 kmh W 10.7 mph17.2 kmh 29.99 in1015.6 mb 0.00 in0.0 mm 0.00 in0.0 mm 0.04 in1.0 mm
05:35 PM 45.3°F7.4°C 40.2°F4.6°C 82% 5.4 mph WNW8.7 kmh WNW 8.3 mph13.4 kmh 29.99 in1015.6 mb 0.00 in0.0 mm 0.00 in0.0 mm 0.04 in1.0 mm
05:40 PM 45.5°F7.5°C 40.6°F4.8°C 83% 5.4 mph W8.7 kmh W 8.3 mph13.4 kmh 29.99 in1015.6 mb 0.00 in0.0 mm 0.00 in0.0 mm 0.04 in1.0 mm
05:45 PM 45.5°F7.5°C 40.6°F4.8°C 83% 6.9 mph WSW11.1 kmh WSW 9.8 mph15.8 kmh 29.99 in1015.6 mb 0.00 in0.0 mm 0.00 in0.0 mm 0.04 in1.0 mm
05:50 PM 45.5°F7.5°C 40.6°F4.8°C 83% 4.5 mph WSW7.2 kmh WSW 9.8 mph15.8 kmh 29.98 in1015.2 mb 0.00 in0.0 mm 0.00 in0.0 mm 0.04 in1.0 mm
05:55 PM 45.5°F7.5°C 40.6°F4.8°C 83% 6.9 mph W11.1 kmh W 10.7 mph17.2 kmh 29.99 in1015.6 mb 0.00 in0.0 mm 0.00 in0.0 mm 0.04 in1.0 mm
06:00 PM 45.7°F7.6°C 40.8°F4.9°C 83% 7.6 mph W12.2 kmh W 14.5 mph23.3 kmh 29.99 in1015.6 mb 0.00 in0.0 mm 0.00 in0.0 mm 0.04 in1.0 mm
06:05 PM 45.7°F7.6°C 40.8°F4.9°C 83% 7.6 mph NW12.2 kmh NW 14.5 mph23.3 kmh 29.99 in1015.6 mb 0.00 in0.0 mm 0.00 in0.0 mm 0.04 in1.0 mm
06:10 PM 45.9°F7.7°C 40.7°F4.8°C 82% 4.5 mph NW7.2 kmh NW 10.7 mph17.2 kmh 29.99 in1015.6 mb 0.00 in0.0 mm 0.00 in0.0 mm 0.04 in1.0 mm
06:15 PM 45.7°F7.6°C 40.5°F4.7°C 82% 5.4 mph W8.7 kmh W 10.7 mph17.2 kmh 29.98 in1015.2 mb 0.00 in0.0 mm 0.00 in0.0 mm 0.04 in1.0 mm
06:20 PM 45.7°F7.6°C 40.5°F4.7°C 82% 5.4 mph W8.7 kmh W 9.8 mph15.8 kmh 29.99 in1015.6 mb 0.00 in0.0 mm 0.00 in0.0 mm 0.04 in1.0 mm
06:25 PM 45.7°F7.6°C 40.8°F4.9°C 83% 4.5 mph WNW7.2 kmh WNW 9.8 mph15.8 kmh 29.99 in1015.6 mb 0.00 in0.0 mm 0.00 in0.0 mm 0.04 in1.0 mm
06:30 PM 45.7°F7.6°C 40.8°F4.9°C 83% 7.6 mph W12.2 kmh W 14.5 mph23.3 kmh 29.99 in1015.6 mb 0.00 in0.0 mm 0.00 in0.0 mm 0.04 in1.0 mm
06:35 PM 45.7°F7.6°C 40.8°F4.9°C 83% 7.6 mph W12.2 kmh W 14.5 mph23.3 kmh 29.99 in1015.6 mb 0.00 in0.0 mm 0.00 in0.0 mm 0.04 in1.0 mm
06:40 PM 45.7°F7.6°C 40.8°F4.9°C 83% 6.9 mph W11.1 kmh W 11.4 mph18.3 kmh 30.00 in1015.9 mb 0.00 in0.0 mm 0.00 in0.0 mm 0.04 in1.0 mm
06:45 PM 45.7°F7.6°C 40.5°F4.7°C 82% 4.5 mph WNW7.2 kmh WNW 9.8 mph15.8 kmh 30.00 in1015.9 mb 0.00 in0.0 mm 0.00 in0.0 mm 0.04 in1.0 mm
06:50 PM 45.7°F7.6°C 40.5°F4.7°C 82% 5.4 mph NW8.7 kmh NW 9.2 mph14.8 kmh 30.00 in1015.9 mb 0.00 in0.0 mm 0.00 in0.0 mm 0.04 in1.0 mm
06:55 PM 45.7°F7.6°C 40.8°F4.9°C 83% 3.1 mph WNW5.0 kmh WNW 8.3 mph13.4 kmh 30.00 in1015.9 mb 0.00 in0.0 mm 0.00 in0.0 mm 0.04 in1.0 mm
07:00 PM 45.5°F7.5°C 40.6°F4.8°C 83% 3.1 mph W5.0 kmh W 7.6 mph12.2 kmh 30.01 in1016.3 mb 0.00 in0.0 mm 0.00 in0.0 mm 0.04 in1.0 mm
07:05 PM 45.5°F7.5°C 40.6°F4.8°C 83% 3.1 mph W5.0 kmh W 8.3 mph13.4 kmh 30.01 in1016.3 mb 0.00 in0.0 mm 0.00 in0.0 mm 0.04 in1.0 mm
07:10 PM 45.5°F7.5°C 40.6°F4.8°C 83% 3.1 mph WSW5.0 kmh WSW 8.3 mph13.4 kmh 30.01 in1016.3 mb 0.00 in0.0 mm 0.00 in0.0 mm 0.04 in1.0 mm
07:15 PM 45.5°F7.5°C 40.6°F4.8°C 83% 8.3 mph W13.4 kmh W 11.4 mph18.3 kmh 30.01 in1016.3 mb 0.00 in0.0 mm 0.00 in0.0 mm 0.04 in1.0 mm
07:20 PM 45.5°F7.5°C 40.3°F4.6°C 82% 3.1 mph WNW5.0 kmh WNW 11.4 mph18.3 kmh 30.01 in1016.3 mb 0.00 in0.0 mm 0.00 in0.0 mm 0.04 in1.0 mm
07:25 PM 45.5°F7.5°C 40.3°F4.6°C 82% 3.1 mph W5.0 kmh W 11.4 mph18.3 kmh 30.01 in1016.3 mb 0.00 in0.0 mm 0.00 in0.0 mm 0.04 in1.0 mm
07:30 PM 45.5°F7.5°C 40.3°F4.6°C 82% 3.1 mph W5.0 kmh W 9.8 mph15.8 kmh 30.01 in1016.3 mb 0.00 in0.0 mm 0.00 in0.0 mm 0.04 in1.0 mm
07:35 PM 45.5°F7.5°C 40.3°F4.6°C 82% 3.8 mph W6.1 kmh W 9.8 mph15.8 kmh 30.01 in1016.3 mb 0.00 in0.0 mm 0.00 in0.0 mm 0.04 in1.0 mm
07:40 PM 45.3°F7.4°C 40.2°F4.6°C 82% 3.8 mph W6.1 kmh W 9.8 mph15.8 kmh 30.00 in1015.9 mb 0.00 in0.0 mm 0.00 in0.0 mm 0.04 in1.0 mm
07:45 PM 45.3°F7.4°C 40.2°F4.6°C 82% 6.9 mph WNW11.1 kmh WNW 10.7 mph17.2 kmh 30.01 in1016.3 mb 0.00 in0.0 mm 0.00 in0.0 mm 0.04 in1.0 mm
07:50 PM 45.3°F7.4°C 40.2°F4.6°C 82% 5.4 mph W8.7 kmh W 10.7 mph17.2 kmh 30.01 in1016.3 mb 0.00 in0.0 mm 0.00 in0.0 mm 0.04 in1.0 mm
07:55 PM 45.3°F7.4°C 40.2°F4.6°C 82% 3.1 mph WSW5.0 kmh WSW 9.2 mph14.8 kmh 30.01 in1016.3 mb 0.00 in0.0 mm 0.00 in0.0 mm 0.04 in1.0 mm
08:00 PM 45.3°F7.4°C 40.2°F4.6°C 82% 6.0 mph WSW9.7 kmh WSW 10.7 mph17.2 kmh 30.01 in1016.3 mb 0.00 in0.0 mm 0.00 in0.0 mm 0.04 in1.0 mm
08:05 PM 45.3°F7.4°C 40.2°F4.6°C 82% 4.5 mph W7.2 kmh W 10.7 mph17.2 kmh 30.01 in1016.3 mb 0.00 in0.0 mm 0.00 in0.0 mm 0.04 in1.0 mm
08:10 PM 45.3°F7.4°C 40.5°F4.7°C 83% 4.5 mph NW7.2 kmh NW 9.2 mph14.8 kmh 30.01 in1016.3 mb 0.00 in0.0 mm 0.00 in0.0 mm 0.04 in1.0 mm
08:15 PM 45.3°F7.4°C 40.5°F4.7°C 83% 4.5 mph WNW7.2 kmh WNW 9.8 mph15.8 kmh 30.01 in1016.3 mb 0.00 in0.0 mm 0.00 in0.0 mm 0.04 in1.0 mm
08:20 PM 45.1°F7.3°C 40.6°F4.8°C 84% 4.5 mph W7.2 kmh W 9.8 mph15.8 kmh 30.01 in1016.3 mb 0.00 in0.0 mm 0.00 in0.0 mm 0.04 in1.0 mm
08:25 PM 45.1°F7.3°C 40.6°F4.8°C 84% 4.5 mph WSW7.2 kmh WSW 9.2 mph14.8 kmh 30.01 in1016.3 mb 0.00 in0.0 mm 0.00 in0.0 mm 0.04 in1.0 mm
08:30 PM 45.0°F7.2°C 40.7°F4.8°C 85% 1.6 mph WSW2.6 kmh WSW 8.3 mph13.4 kmh 30.00 in1015.9 mb 0.00 in0.0 mm 0.00 in0.0 mm 0.04 in1.0 mm
08:35 PM 45.0°F7.2°C 40.7°F4.8°C 85% 1.6 mph W2.6 kmh W 8.3 mph13.4 kmh 30.00 in1015.9 mb 0.00 in0.0 mm 0.00 in0.0 mm 0.04 in1.0 mm
08:40 PM 45.0°F7.2°C 41.0°F5.0°C 86% 2.2 mph W3.5 kmh W 7.6 mph12.2 kmh 30.00 in1015.9 mb 0.00 in0.0 mm 0.00 in0.0 mm 0.04 in1.0 mm
08:45 PM 44.8°F7.1°C 40.9°F4.9°C 86% 3.1 mph WSW5.0 kmh WSW 7.6 mph12.2 kmh 30.01 in1016.3 mb 0.00 in0.0 mm 0.00 in0.0 mm 0.04 in1.0 mm
08:50 PM 44.8°F7.1°C 41.2°F5.1°C 87% 2.2 mph W3.5 kmh W 6.0 mph9.7 kmh 30.00 in1015.9 mb 0.00 in0.0 mm 0.00 in0.0 mm 0.04 in1.0 mm
08:55 PM 44.8°F7.1°C 41.2°F5.1°C 87% 3.1 mph W5.0 kmh W 5.4 mph8.7 kmh 30.00 in1015.9 mb 0.00 in0.0 mm 0.00 in0.0 mm 0.04 in1.0 mm
09:00 PM 44.6°F7.0°C 41.0°F5.0°C 87% 0.7 mph W1.1 kmh W 6.0 mph9.7 kmh 30.00 in1015.9 mb 0.00 in0.0 mm 0.00 in0.0 mm 0.04 in1.0 mm
09:05 PM 44.6°F7.0°C 41.3°F5.2°C 88% 1.6 mph W2.6 kmh W 6.0 mph9.7 kmh 30.00 in1015.9 mb 0.00 in0.0 mm 0.00 in0.0 mm 0.04 in1.0 mm
09:10 PM 44.6°F7.0°C 41.3°F5.2°C 88% 2.2 mph W3.5 kmh W 4.5 mph7.2 kmh 30.00 in1015.9 mb 0.00 in0.0 mm 0.00 in0.0 mm 0.04 in1.0 mm
09:15 PM 44.6°F7.0°C 41.3°F5.2°C 88% 1.6 mph WSW2.6 kmh WSW 5.4 mph8.7 kmh 29.99 in1015.6 mb 0.00 in0.0 mm 0.00 in0.0 mm 0.04 in1.0 mm
09:20 PM 44.6°F7.0°C 41.6°F5.3°C 89% 1.6 mph WSW2.6 kmh WSW 5.4 mph8.7 kmh 30.00 in1015.9 mb 0.00 in0.0 mm 0.00 in0.0 mm 0.04 in1.0 mm
09:25 PM 44.6°F7.0°C 41.6°F5.3°C 89% 0.7 mph W1.1 kmh W 5.4 mph8.7 kmh 30.00 in1015.9 mb 0.00 in0.0 mm 0.00 in0.0 mm 0.04 in1.0 mm
09:30 PM 44.6°F7.0°C 41.6°F5.3°C 89% 2.2 mph W3.5 kmh W 3.1 mph5.0 kmh 30.00 in1015.9 mb 0.00 in0.0 mm 0.00 in0.0 mm 0.04 in1.0 mm
09:35 PM 44.6°F7.0°C 41.9°F5.5°C 90% 1.6 mph NW2.6 kmh NW 3.1 mph5.0 kmh 30.00 in1015.9 mb 0.00 in0.0 mm 0.00 in0.0 mm 0.04 in1.0 mm
09:40 PM 44.4°F6.9°C 42.0°F5.6°C 91% 1.6 mph NW2.6 kmh NW 3.1 mph5.0 kmh 30.01 in1016.3 mb 0.00 in0.0 mm 0.00 in0.0 mm 0.04 in1.0 mm
09:45 PM 44.4°F6.9°C 42.0°F5.6°C 91% Calm Calm 3.1 mph5.0 kmh 30.01 in1016.3 mb 0.00 in0.0 mm 0.00 in0.0 mm 0.04 in1.0 mm
09:50 PM 44.4°F6.9°C 42.2°F5.7°C 92% Calm Calm 2.2 mph3.5 kmh 30.01 in1016.3 mb 0.00 in0.0 mm 0.00 in0.0 mm 0.04 in1.0 mm
09:55 PM 44.2°F6.8°C 42.1°F5.6°C 92% Calm Calm 1.6 mph2.6 kmh 30.02 in1016.6 mb 0.00 in0.0 mm 0.00 in0.0 mm 0.04 in1.0 mm
10:00 PM 44.2°F6.8°C 42.1°F5.6°C 92% 1.6 mph NW2.6 kmh NW 3.1 mph5.0 kmh 30.01 in1016.3 mb 0.01 in0.3 mm 0.01 in0.3 mm 0.05 in1.3 mm
10:05 PM 44.2°F6.8°C 42.1°F5.6°C 92% 1.6 mph W2.6 kmh W 3.1 mph5.0 kmh 30.02 in1016.6 mb 0.01 in0.3 mm 0.00 in0.0 mm 0.05 in1.3 mm
10:10 PM 44.2°F6.8°C 42.3°F5.7°C 93% Calm Calm 3.1 mph5.0 kmh 30.02 in1016.6 mb 0.01 in0.3 mm 0.00 in0.0 mm 0.05 in1.3 mm
10:15 PM 44.1°F6.7°C 42.2°F5.7°C 93% 0.7 mph W1.1 kmh W 3.1 mph5.0 kmh 30.02 in1016.6 mb 0.01 in0.3 mm 0.00 in0.0 mm 0.05 in1.3 mm
10:20 PM 44.1°F6.7°C 42.2°F5.7°C 93% Calm Calm 2.2 mph3.5 kmh 30.02 in1016.6 mb 0.02 in0.5 mm 0.12 in3.0 mm 0.06 in1.5 mm
10:25 PM 44.1°F6.7°C 42.2°F5.7°C 93% Calm Calm 3.1 mph5.0 kmh 30.02 in1016.6 mb 0.02 in0.5 mm 0.00 in0.0 mm 0.06 in1.5 mm
10:30 PM 44.1°F6.7°C 42.4°F5.8°C 94% Calm Calm 3.1 mph5.0 kmh 30.02 in1016.6 mb 0.02 in0.5 mm 0.00 in0.0 mm 0.06 in1.5 mm
10:35 PM 44.1°F6.7°C 42.4°F5.8°C 94% Calm Calm 2.2 mph3.5 kmh 30.02 in1016.6 mb 0.02 in0.5 mm 0.00 in0.0 mm 0.06 in1.5 mm
10:40 PM 44.1°F6.7°C 42.4°F5.8°C 94% 0.7 mph W1.1 kmh W 2.2 mph3.5 kmh 30.02 in1016.6 mb 0.02 in0.5 mm 0.00 in0.0 mm 0.06 in1.5 mm
10:45 PM 44.1°F6.7°C 42.4°F5.8°C 94% 1.6 mph WSW2.6 kmh WSW 4.5 mph7.2 kmh 30.02 in1016.6 mb 0.02 in0.5 mm 0.00 in0.0 mm 0.06 in1.5 mm
10:50 PM 44.1°F6.7°C 42.4°F5.8°C 94% 1.6 mph WSW2.6 kmh WSW 4.5 mph7.2 kmh 30.02 in1016.6 mb 0.02 in0.5 mm 0.00 in0.0 mm 0.06 in1.5 mm
10:55 PM 44.1°F6.7°C 42.4°F5.8°C 94% Calm Calm 4.5 mph7.2 kmh 30.02 in1016.6 mb 0.02 in0.5 mm 0.00 in0.0 mm 0.06 in1.5 mm
11:00 PM 44.1°F6.7°C 42.4°F5.8°C 94% 1.6 mph WSW2.6 kmh WSW 3.8 mph6.1 kmh 30.02 in1016.6 mb 0.01 in0.3 mm 0.00 in0.0 mm 0.06 in1.5 mm
11:05 PM 44.1°F6.7°C 42.7°F5.9°C 95% 0.7 mph W1.1 kmh W 3.8 mph6.1 kmh 30.02 in1016.6 mb 0.01 in0.3 mm 0.00 in0.0 mm 0.06 in1.5 mm
11:10 PM 44.1°F6.7°C 42.7°F5.9°C 95% 0.7 mph W1.1 kmh W 3.8 mph6.1 kmh 30.02 in1016.6 mb 0.01 in0.3 mm 0.00 in0.0 mm 0.06 in1.5 mm
11:15 PM 44.1°F6.7°C 42.7°F5.9°C 95% 0.7 mph WNW1.1 kmh WNW 3.1 mph5.0 kmh 30.02 in1016.6 mb 0.01 in0.3 mm 0.00 in0.0 mm 0.06 in1.5 mm
11:20 PM 44.1°F6.7°C 42.7°F5.9°C 95% 0.7 mph W1.1 kmh W 3.1 mph5.0 kmh 30.02 in1016.6 mb 0.00 in0.0 mm 0.00 in0.0 mm 0.06 in1.5 mm
11:25 PM 43.9°F6.6°C 42.5°F5.8°C 95% 2.2 mph WNW3.5 kmh WNW 4.5 mph7.2 kmh 30.01 in1016.3 mb 0.00 in0.0 mm 0.00 in0.0 mm 0.06 in1.5 mm
11:30 PM 43.9°F6.6°C 42.5°F5.8°C 95% 0.7 mph WNW1.1 kmh WNW 4.5 mph7.2 kmh 30.02 in1016.6 mb 0.00 in0.0 mm 0.00 in0.0 mm 0.06 in1.5 mm
11:35 PM 43.9°F6.6°C 42.5°F5.8°C 95% 1.6 mph WNW2.6 kmh WNW 3.8 mph6.1 kmh 30.02 in1016.6 mb 0.00 in0.0 mm 0.00 in0.0 mm 0.06 in1.5 mm
11:40 PM 43.9°F6.6°C 42.5°F5.8°C 95% 0.7 mph WNW1.1 kmh WNW 3.8 mph6.1 kmh 30.01 in1016.3 mb 0.00 in0.0 mm 0.00 in0.0 mm 0.06 in1.5 mm
11:45 PM 43.9°F6.6°C 42.5°F5.8°C 95% Calm Calm 3.8 mph6.1 kmh 30.02 in1016.6 mb 0.00 in0.0 mm 0.00 in0.0 mm 0.06 in1.5 mm
11:50 PM 44.1°F6.7°C 42.7°F5.9°C 95% 1.6 mph W2.6 kmh W 3.8 mph6.1 kmh 30.02 in1016.6 mb 0.01 in0.3 mm 0.12 in3.0 mm 0.07 in1.8 mm
11:55 PM 44.1°F6.7°C 43.0°F6.1°C 96% Calm Calm 3.8 mph6.1 kmh 30.02 in1016.6 mb 0.01 in0.3 mm 0.00 in0.0 mm 0.07 in1.8 mm